sensor_id;sensor_type;location;lat;lon;timestamp;temperature;humidity
1786;DHT22;890;48.158;11.540;2023-03-25T00:02:20;10.40;73.80
1786;DHT22;890;48.158;11.540;2023-03-25T00:04:49;10.40;73.70
1786;DHT22;890;48.158;11.540;2023-03-25T00:07:15;10.30;73.60
1786;DHT22;890;48.158;11.540;2023-03-25T00:09:43;10.30;74.30
1786;DHT22;890;48.158;11.540;2023-03-25T00:12:08;10.30;73.70
1786;DHT22;890;48.158;11.540;2023-03-25T00:14:34;10.30;73.70
1786;DHT22;890;48.158;11.540;2023-03-25T00:16:59;10.20;73.50
1786;DHT22;890;48.158;11.540;2023-03-25T00:19:25;10.20;73.50
1786;DHT22;890;48.158;11.540;2023-03-25T00:21:52;10.20;73.50
1786;DHT22;890;48.158;11.540;2023-03-25T00:24:18;10.20;73.50
1786;DHT22;890;48.158;11.540;2023-03-25T00:26:45;10.20;73.40
1786;DHT22;890;48.158;11.540;2023-03-25T00:29:13;10.20;73.30
1786;DHT22;890;48.158;11.540;2023-03-25T00:31:39;10.20;73.20
1786;DHT22;890;48.158;11.540;2023-03-25T00:34:06;10.30;73.10
1786;DHT22;890;48.158;11.540;2023-03-25T00:36:31;10.30;72.90
1786;DHT22;890;48.158;11.540;2023-03-25T00:38:57;10.30;72.90
1786;DHT22;890;48.158;11.540;2023-03-25T00:41:24;10.30;72.70
1786;DHT22;890;48.158;11.540;2023-03-25T00:43:52;10.30;72.60
1786;DHT22;890;48.158;11.540;2023-03-25T00:46:18;10.30;72.30
1786;DHT22;890;48.158;11.540;2023-03-25T00:48:43;10.40;72.30
1786;DHT22;890;48.158;11.540;2023-03-25T00:51:09;10.40;72.10
1786;DHT22;890;48.158;11.540;2023-03-25T00:53:39;10.50;71.90
1786;DHT22;890;48.158;11.540;2023-03-25T00:56:05;10.50;71.60
1786;DHT22;890;48.158;11.540;2023-03-25T00:58:31;10.50;71.60
1786;DHT22;890;48.158;11.540;2023-03-25T01:00:57;10.60;71.60
1786;DHT22;890;48.158;11.540;2023-03-25T01:03:24;10.60;71.50
1786;DHT22;890;48.158;11.540;2023-03-25T01:05:50;10.60;71.30
1786;DHT22;890;48.158;11.540;2023-03-25T01:08:19;10.60;71.00
1786;DHT22;890;48.158;11.540;2023-03-25T01:10:50;10.60;70.90
1786;DHT22;890;48.158;11.540;2023-03-25T01:13:17;10.70;71.10
1786;DHT22;890;48.158;11.540;2023-03-25T01:15:42;10.70;70.90
1786;DHT22;890;48.158;11.540;2023-03-25T01:18:08;10.70;70.80
1786;DHT22;890;48.158;11.540;2023-03-25T01:20:34;10.70;70.70
1786;DHT22;890;48.158;11.540;2023-03-25T01:22:59;10.70;70.60
1786;DHT22;890;48.158;11.540;2023-03-25T01:25:25;10.70;70.60
1786;DHT22;890;48.158;11.540;2023-03-25T01:27:50;10.70;70.40
1786;DHT22;890;48.158;11.540;2023-03-25T01:30:16;10.70;70.40
1786;DHT22;890;48.158;11.540;2023-03-25T01:32:41;10.70;70.40
1786;DHT22;890;48.158;11.540;2023-03-25T01:35:08;10.70;70.20
1786;DHT22;890;48.158;11.540;2023-03-25T01:37:35;10.70;70.20
1786;DHT22;890;48.158;11.540;2023-03-25T01:40:02;10.70;70.00
1786;DHT22;890;48.158;11.540;2023-03-25T01:42:29;10.80;70.20
1786;DHT22;890;48.158;11.540;2023-03-25T01:45:19;10.80;70.20
1786;DHT22;890;48.158;11.540;2023-03-25T01:47:45;10.70;69.80
1786;DHT22;890;48.158;11.540;2023-03-25T01:50:12;10.80;70.00
1786;DHT22;890;48.158;11.540;2023-03-25T01:52:43;10.80;70.00
1786;DHT22;890;48.158;11.540;2023-03-25T01:55:09;10.80;69.80
1786;DHT22;890;48.158;11.540;2023-03-25T01:57:38;10.80;69.80
1786;DHT22;890;48.158;11.540;2023-03-25T02:00:06;10.80;69.70
1786;DHT22;890;48.158;11.540;2023-03-25T02:02:33;10.80;69.60
1786;DHT22;890;48.158;11.540;2023-03-25T02:05:07;9.70;69.50
1786;DHT22;890;48.158;11.540;2023-03-25T02:07:37;10.80;69.30
1786;DHT22;890;48.158;11.540;2023-03-25T02:10:08;10.80;69.20
1786;DHT22;890;48.158;11.540;2023-03-25T02:12:35;10.80;69.10
1786;DHT22;890;48.158;11.540;2023-03-25T02:15:03;10.80;69.10
1786;DHT22;890;48.158;11.540;2023-03-25T02:23:30;10.70;68.80
1786;DHT22;890;48.158;11.540;2023-03-25T02:29:29;10.70;68.70
1786;DHT22;890;48.158;11.540;2023-03-25T02:32:06;10.70;68.50
1786;DHT22;890;48.158;11.540;2023-03-25T02:37:47;10.50;68.10
1786;DHT22;890;48.158;11.540;2023-03-25T02:40:27;10.50;67.90
1786;DHT22;890;48.158;11.540;2023-03-25T02:43:21;10.50;68.00
1786;DHT22;890;48.158;11.540;2023-03-25T02:45:54;10.40;67.40
1786;DHT22;890;48.158;11.540;2023-03-25T02:48:54;10.30;67.70
1786;DHT22;890;48.158;11.540;2023-03-25T02:51:25;10.30;67.70
1786;DHT22;890;48.158;11.540;2023-03-25T02:53:54;10.40;67.80
1786;DHT22;890;48.158;11.540;2023-03-25T02:56:22;10.30;67.80
1786;DHT22;890;48.158;11.540;2023-03-25T02:58:51;10.30;67.80
1786;DHT22;890;48.158;11.540;2023-03-25T03:01:20;10.30;67.80
1786;DHT22;890;48.158;11.540;2023-03-25T03:03:47;10.30;67.70
1786;DHT22;890;48.158;11.540;2023-03-25T03:06:16;10.30;67.70
1786;DHT22;890;48.158;11.540;2023-03-25T03:11:24;10.20;67.60
1786;DHT22;890;48.158;11.540;2023-03-25T03:16:39;10.20;67.80
1786;DHT22;890;48.158;11.540;2023-03-25T03:21:55;10.10;67.30
1786;DHT22;890;48.158;11.540;2023-03-25T03:24:49;10.10;67.30
1786;DHT22;890;48.158;11.540;2023-03-25T03:30:04;10.00;67.80
1786;DHT22;890;48.158;11.540;2023-03-25T03:32:48;10.00;66.90
1786;DHT22;890;48.158;11.540;2023-03-25T03:35:26;9.90;67.90
1786;DHT22;890;48.158;11.540;2023-03-25T03:37:59;9.90;68.10
1786;DHT22;890;48.158;11.540;2023-03-25T03:40:29;9.90;68.30
1786;DHT22;890;48.158;11.540;2023-03-25T03:42:57;9.90;68.40
1786;DHT22;890;48.158;11.540;2023-03-25T03:45:39;9.80;68.60
1786;DHT22;890;48.158;11.540;2023-03-25T03:48:14;9.70;68.70
1786;DHT22;890;48.158;11.540;2023-03-25T03:50:47;9.70;69.00
1786;DHT22;890;48.158;11.540;2023-03-25T03:53:25;9.60;69.20
1786;DHT22;890;48.158;11.540;2023-03-25T03:56:10;9.60;69.40
1786;DHT22;890;48.158;11.540;2023-03-25T03:58:39;9.50;69.50
1786;DHT22;890;48.158;11.540;2023-03-25T04:01:12;9.60;69.60
1786;DHT22;890;48.158;11.540;2023-03-25T04:03:55;9.50;69.70
1786;DHT22;890;48.158;11.540;2023-03-25T04:06:27;9.50;69.90
1786;DHT22;890;48.158;11.540;2023-03-25T04:08:58;9.50;69.90
1786;DHT22;890;48.158;11.540;2023-03-25T04:11:46;9.40;69.80
1786;DHT22;890;48.158;11.540;2023-03-25T04:14:13;9.40;69.80
1786;DHT22;890;48.158;11.540;2023-03-25T04:16:40;9.40;69.80
1786;DHT22;890;48.158;11.540;2023-03-25T04:19:10;9.40;69.90
1786;DHT22;890;48.158;11.540;2023-03-25T04:21:38;9.40;69.90
1786;DHT22;890;48.158;11.540;2023-03-25T04:24:04;9.40;69.80
1786;DHT22;890;48.158;11.540;2023-03-25T04:26:32;9.40;69.80
1786;DHT22;890;48.158;11.540;2023-03-25T04:29:05;9.40;69.80
1786;DHT22;890;48.158;11.540;2023-03-25T04:31:31;9.30;69.60
1786;DHT22;890;48.158;11.540;2023-03-25T04:33:57;9.30;69.50
1786;DHT22;890;48.158;11.540;2023-03-25T04:36:24;9.20;69.40
1786;DHT22;890;48.158;11.540;2023-03-25T04:38:53;9.30;70.20
1786;DHT22;890;48.158;11.540;2023-03-25T04:41:20;9.30;69.40
1786;DHT22;890;48.158;11.540;2023-03-25T04:43:46;9.30;69.30
1786;DHT22;890;48.158;11.540;2023-03-25T04:46:13;9.30;69.20
1786;DHT22;890;48.158;11.540;2023-03-25T04:48:39;9.30;69.10
1786;DHT22;890;48.158;11.540;2023-03-25T04:51:10;9.30;69.00
1786;DHT22;890;48.158;11.540;2023-03-25T04:53:36;9.40;69.00
1786;DHT22;890;48.158;11.540;2023-03-25T04:56:03;9.40;68.80
1786;DHT22;890;48.158;11.540;2023-03-25T04:58:30;9.40;68.70
1786;DHT22;890;48.158;11.540;2023-03-25T05:00:56;9.40;68.60
1786;DHT22;890;48.158;11.540;2023-03-25T05:03:21;9.50;68.60
1786;DHT22;890;48.158;11.540;2023-03-25T05:05:50;9.50;68.60
1786;DHT22;890;48.158;11.540;2023-03-25T05:08:16;9.50;69.20
1786;DHT22;890;48.158;11.540;2023-03-25T05:10:43;9.50;68.40
1786;DHT22;890;48.158;11.540;2023-03-25T05:13:09;9.50;68.40
1786;DHT22;890;48.158;11.540;2023-03-25T05:15:35;9.50;68.30
1786;DHT22;890;48.158;11.540;2023-03-25T05:18:15;9.50;68.30
1786;DHT22;890;48.158;11.540;2023-03-25T05:20:43;9.50;68.20
1786;DHT22;890;48.158;11.540;2023-03-25T05:23:10;9.50;68.20
1786;DHT22;890;48.158;11.540;2023-03-25T05:25:47;9.60;68.20
1786;DHT22;890;48.158;11.540;2023-03-25T05:28:13;9.60;68.20
1786;DHT22;890;48.158;11.540;2023-03-25T05:30:40;9.60;68.10
1786;DHT22;890;48.158;11.540;2023-03-25T05:33:09;9.60;68.10
1786;DHT22;890;48.158;11.540;2023-03-25T05:35:36;9.60;68.10
1786;DHT22;890;48.158;11.540;2023-03-25T05:38:03;9.60;68.10
1786;DHT22;890;48.158;11.540;2023-03-25T05:40:29;9.70;68.20
1786;DHT22;890;48.158;11.540;2023-03-25T05:42:54;9.70;68.20
1786;DHT22;890;48.158;11.540;2023-03-25T05:45:20;9.80;68.20
1786;DHT22;890;48.158;11.540;2023-03-25T05:47:46;9.80;68.10
1786;DHT22;890;48.158;11.540;2023-03-25T05:50:12;9.80;68.20
1786;DHT22;890;48.158;11.540;2023-03-25T05:52:41;9.90;68.10
1786;DHT22;890;48.158;11.540;2023-03-25T05:55:14;9.90;68.00
1786;DHT22;890;48.158;11.540;2023-03-25T05:57:40;10.00;66.70
1786;DHT22;890;48.158;11.540;2023-03-25T06:00:07;10.00;66.50
1786;DHT22;890;48.158;11.540;2023-03-25T06:02:33;10.00;66.30
1786;DHT22;890;48.158;11.540;2023-03-25T06:04:59;10.00;66.30
1786;DHT22;890;48.158;11.540;2023-03-25T06:07:25;9.90;67.20
1786;DHT22;890;48.158;11.540;2023-03-25T06:09:50;9.90;67.00
1786;DHT22;890;48.158;11.540;2023-03-25T06:12:20;9.90;66.90
1786;DHT22;890;48.158;11.540;2023-03-25T06:14:47;9.90;66.60
1786;DHT22;890;48.158;11.540;2023-03-25T06:17:18;9.80;66.40
1786;DHT22;890;48.158;11.540;2023-03-25T06:19:50;9.80;66.40
1786;DHT22;890;48.158;11.540;2023-03-25T06:22:16;9.90;66.40
1786;DHT22;890;48.158;11.540;2023-03-25T06:24:41;9.90;66.00
1786;DHT22;890;48.158;11.540;2023-03-25T06:27:11;9.90;65.60
1786;DHT22;890;48.158;11.540;2023-03-25T06:29:37;9.80;64.90
1786;DHT22;890;48.158;11.540;2023-03-25T06:32:04;9.80;64.70
1786;DHT22;890;48.158;11.540;2023-03-25T06:34:30;9.80;64.50
1786;DHT22;890;48.158;11.540;2023-03-25T06:36:58;9.80;64.20
1786;DHT22;890;48.158;11.540;2023-03-25T06:39:23;9.80;64.00
1786;DHT22;890;48.158;11.540;2023-03-25T06:41:49;9.80;63.80
1786;DHT22;890;48.158;11.540;2023-03-25T06:44:14;9.70;63.50
1786;DHT22;890;48.158;11.540;2023-03-25T06:46:41;9.80;63.30
1786;DHT22;890;48.158;11.540;2023-03-25T06:49:07;9.60;63.00
1786;DHT22;890;48.158;11.540;2023-03-25T06:51:33;9.60;63.10
1786;DHT22;890;48.158;11.540;2023-03-25T06:53:58;9.60;63.10
1786;DHT22;890;48.158;11.540;2023-03-25T06:56:24;9.60;63.20
1786;DHT22;890;48.158;11.540;2023-03-25T06:58:50;9.60;63.20
1786;DHT22;890;48.158;11.540;2023-03-25T07:01:15;9.80;63.30
1786;DHT22;890;48.158;11.540;2023-03-25T07:03:41;9.80;63.10
1786;DHT22;890;48.158;11.540;2023-03-25T07:06:08;9.90;63.50
1786;DHT22;890;48.158;11.540;2023-03-25T07:08:38;10.00;62.60
1786;DHT22;890;48.158;11.540;2023-03-25T07:11:05;10.00;62.70
1786;DHT22;890;48.158;11.540;2023-03-25T07:13:32;9.90;64.00
1786;DHT22;890;48.158;11.540;2023-03-25T07:15:58;9.90;64.20
1786;DHT22;890;48.158;11.540;2023-03-25T07:18:24;9.90;64.30
1786;DHT22;890;48.158;11.540;2023-03-25T07:20:50;9.90;64.50
1786;DHT22;890;48.158;11.540;2023-03-25T07:23:16;9.90;64.70
1786;DHT22;890;48.158;11.540;2023-03-25T07:25:41;9.90;64.70
1786;DHT22;890;48.158;11.540;2023-03-25T07:28:07;9.90;64.50
1786;DHT22;890;48.158;11.540;2023-03-25T07:30:32;9.90;64.50
1786;DHT22;890;48.158;11.540;2023-03-25T07:32:58;9.90;64.60
1786;DHT22;890;48.158;11.540;2023-03-25T07:35:24;9.90;64.60
1786;DHT22;890;48.158;11.540;2023-03-25T07:37:49;9.90;64.80
1786;DHT22;890;48.158;11.540;2023-03-25T07:40:15;9.80;65.00
1786;DHT22;890;48.158;11.540;2023-03-25T07:42:40;9.80;65.20
1786;DHT22;890;48.158;11.540;2023-03-25T07:45:06;9.70;65.00
1786;DHT22;890;48.158;11.540;2023-03-25T07:47:32;9.60;65.20
1786;DHT22;890;48.158;11.540;2023-03-25T07:49:58;9.80;65.40
1786;DHT22;890;48.158;11.540;2023-03-25T07:52:23;10.00;64.30
1786;DHT22;890;48.158;11.540;2023-03-25T07:54:49;10.20;64.00
1786;DHT22;890;48.158;11.540;2023-03-25T07:57:15;10.00;63.60
1786;DHT22;890;48.158;11.540;2023-03-25T07:59:40;9.70;64.80
1786;DHT22;890;48.158;11.540;2023-03-25T08:02:08;9.60;65.20
1786;DHT22;890;48.158;11.540;2023-03-25T08:04:33;9.60;65.50
1786;DHT22;890;48.158;11.540;2023-03-25T08:06:59;9.70;65.80
1786;DHT22;890;48.158;11.540;2023-03-25T08:09:25;9.90;66.00
1786;DHT22;890;48.158;11.540;2023-03-25T08:11:51;10.00;64.70
1786;DHT22;890;48.158;11.540;2023-03-25T08:14:17;10.10;64.80
1786;DHT22;890;48.158;11.540;2023-03-25T08:16:42;10.20;65.00
1786;DHT22;890;48.158;11.540;2023-03-25T08:19:08;10.20;64.90
1786;DHT22;890;48.158;11.540;2023-03-25T08:21:33;10.20;65.10
1786;DHT22;890;48.158;11.540;2023-03-25T08:23:59;10.20;64.90
1786;DHT22;890;48.158;11.540;2023-03-25T08:26:30;10.30;65.00
1786;DHT22;890;48.158;11.540;2023-03-25T08:28:56;10.40;65.00
1786;DHT22;890;48.158;11.540;2023-03-25T08:31:29;10.40;65.10
1786;DHT22;890;48.158;11.540;2023-03-25T08:34:00;10.50;65.10
1786;DHT22;890;48.158;11.540;2023-03-25T08:36:26;10.80;66.00
1786;DHT22;890;48.158;11.540;2023-03-25T08:38:52;10.90;65.00
1786;DHT22;890;48.158;11.540;2023-03-25T08:41:18;11.00;64.30
1786;DHT22;890;48.158;11.540;2023-03-25T08:43:44;11.00;63.50
1786;DHT22;890;48.158;11.540;2023-03-25T08:46:10;10.90;63.10
1786;DHT22;890;48.158;11.540;2023-03-25T08:48:36;10.90;63.20
1786;DHT22;890;48.158;11.540;2023-03-25T08:51:02;10.90;63.50
1786;DHT22;890;48.158;11.540;2023-03-25T08:53:28;11.10;63.60
1786;DHT22;890;48.158;11.540;2023-03-25T08:55:55;11.20;63.40
1786;DHT22;890;48.158;11.540;2023-03-25T08:58:23;11.30;62.90
1786;DHT22;890;48.158;11.540;2023-03-25T09:00:53;11.30;62.70
1786;DHT22;890;48.158;11.540;2023-03-25T09:03:21;11.10;62.50
1786;DHT22;890;48.158;11.540;2023-03-25T09:05:47;10.90;62.40
1786;DHT22;890;48.158;11.540;2023-03-25T09:08:13;10.80;62.60
1786;DHT22;890;48.158;11.540;2023-03-25T09:10:39;10.70;62.70
1786;DHT22;890;48.158;11.540;2023-03-25T09:13:05;10.70;63.10
1786;DHT22;890;48.158;11.540;2023-03-25T09:15:30;10.70;63.40
1786;DHT22;890;48.158;11.540;2023-03-25T09:17:56;10.80;64.60
1786;DHT22;890;48.158;11.540;2023-03-25T09:20:22;11.10;66.40
1786;DHT22;890;48.158;11.540;2023-03-25T09:22:48;11.40;67.40
1786;DHT22;890;48.158;11.540;2023-03-25T09:25:15;11.80;71.10
1786;DHT22;890;48.158;11.540;2023-03-25T09:27:40;12.20;73.00
1786;DHT22;890;48.158;11.540;2023-03-25T09:30:07;12.70;74.00
1786;DHT22;890;48.158;11.540;2023-03-25T09:32:34;13.10;74.60
1786;DHT22;890;48.158;11.540;2023-03-25T09:35:00;13.60;76.30
1786;DHT22;890;48.158;11.540;2023-03-25T09:37:25;13.90;74.40
1786;DHT22;890;48.158;11.540;2023-03-25T09:39:53;14.10;71.50
1786;DHT22;890;48.158;11.540;2023-03-25T09:42:43;14.00;66.30
1786;DHT22;890;48.158;11.540;2023-03-25T09:45:30;13.70;63.40
1786;DHT22;890;48.158;11.540;2023-03-25T09:48:03;13.30;61.30
1786;DHT22;890;48.158;11.540;2023-03-25T09:50:30;13.10;63.80
1786;DHT22;890;48.158;11.540;2023-03-25T09:53:06;13.40;65.80
1786;DHT22;890;48.158;11.540;2023-03-25T09:55:41;14.20;69.60
1786;DHT22;890;48.158;11.540;2023-03-25T09:58:27;14.10;63.30
1786;DHT22;890;48.158;11.540;2023-03-25T10:06:13;13.10;57.30
1786;DHT22;890;48.158;11.540;2023-03-25T10:14:12;12.50;57.30
1786;DHT22;890;48.158;11.540;2023-03-25T10:23:02;13.70;59.60
1786;DHT22;890;48.158;11.540;2023-03-25T10:25:32;13.90;58.80
1786;DHT22;890;48.158;11.540;2023-03-25T10:27:59;14.10;57.70
1786;DHT22;890;48.158;11.540;2023-03-25T10:30:35;14.00;57.20
1786;DHT22;890;48.158;11.540;2023-03-25T10:33:05;13.70;55.80
1786;DHT22;890;48.158;11.540;2023-03-25T10:35:39;13.50;54.80
1786;DHT22;890;48.158;11.540;2023-03-25T10:38:19;13.20;54.40
1786;DHT22;890;48.158;11.540;2023-03-25T10:40:46;12.90;54.20
1786;DHT22;890;48.158;11.540;2023-03-25T10:43:38;12.70;54.50
1786;DHT22;890;48.158;11.540;2023-03-25T10:48:49;12.50;55.10
1786;DHT22;890;48.158;11.540;2023-03-25T10:51:18;12.20;55.80
1786;DHT22;890;48.158;11.540;2023-03-25T10:53:47;12.10;56.30
1786;DHT22;890;48.158;11.540;2023-03-25T10:56:17;12.30;56.50
1786;DHT22;890;48.158;11.540;2023-03-25T10:58:51;12.50;56.30
1786;DHT22;890;48.158;11.540;2023-03-25T11:01:20;12.50;56.00
1786;DHT22;890;48.158;11.540;2023-03-25T11:03:49;12.60;56.10
1786;DHT22;890;48.158;11.540;2023-03-25T11:06:25;12.90;55.50
1786;DHT22;890;48.158;11.540;2023-03-25T11:08:57;12.70;54.80
1786;DHT22;890;48.158;11.540;2023-03-25T11:11:34;12.60;54.60
1786;DHT22;890;48.158;11.540;2023-03-25T11:14:00;12.60;55.40
1786;DHT22;890;48.158;11.540;2023-03-25T11:16:31;12.80;55.70
1786;DHT22;890;48.158;11.540;2023-03-25T11:19:00;12.70;55.10
1786;DHT22;890;48.158;11.540;2023-03-25T11:21:31;12.70;55.90
1786;DHT22;890;48.158;11.540;2023-03-25T11:23:57;12.70;54.90
1786;DHT22;890;48.158;11.540;2023-03-25T11:26:25;12.60;54.80
1786;DHT22;890;48.158;11.540;2023-03-25T11:29:11;12.50;54.70
1786;DHT22;890;48.158;11.540;2023-03-25T11:31:40;12.50;54.50
1786;DHT22;890;48.158;11.540;2023-03-25T11:34:19;12.30;54.60
1786;DHT22;890;48.158;11.540;2023-03-25T11:37:03;12.20;55.10
1786;DHT22;890;48.158;11.540;2023-03-25T11:39:36;12.50;55.80
1786;DHT22;890;48.158;11.540;2023-03-25T11:42:12;12.80;55.50
1786;DHT22;890;48.158;11.540;2023-03-25T11:44:39;12.60;55.90
1786;DHT22;890;48.158;11.540;2023-03-25T11:47:07;12.70;56.80
1786;DHT22;890;48.158;11.540;2023-03-25T11:49:38;13.00;56.60
1786;DHT22;890;48.158;11.540;2023-03-25T11:52:08;13.20;56.70
1786;DHT22;890;48.158;11.540;2023-03-25T11:54:37;13.20;56.30
1786;DHT22;890;48.158;11.540;2023-03-25T11:57:08;13.30;56.00
1786;DHT22;890;48.158;11.540;2023-03-25T11:59:44;13.30;55.80
1786;DHT22;890;48.158;11.540;2023-03-25T12:02:30;13.60;56.70
1786;DHT22;890;48.158;11.540;2023-03-25T12:05:13;13.80;56.80
1786;DHT22;890;48.158;11.540;2023-03-25T12:07:47;14.30;58.70
1786;DHT22;890;48.158;11.540;2023-03-25T12:13:21;14.70;59.20
1786;DHT22;890;48.158;11.540;2023-03-25T12:16:02;15.00;58.00
1786;DHT22;890;48.158;11.540;2023-03-25T12:19:02;14.70;56.80
1786;DHT22;890;48.158;11.540;2023-03-25T12:24:27;14.40;55.90
1786;DHT22;890;48.158;11.540;2023-03-25T12:50:08;12.60;53.50
1786;DHT22;890;48.158;11.540;2023-03-25T13:00:31;12.80;54.00
1786;DHT22;890;48.158;11.540;2023-03-25T13:08:41;12.80;54.30
1786;DHT22;890;48.158;11.540;2023-03-25T13:11:19;12.70;54.20
1786;DHT22;890;48.158;11.540;2023-03-25T13:13:48;12.90;54.20
1786;DHT22;890;48.158;11.540;2023-03-25T13:16:20;12.80;54.10
1786;DHT22;890;48.158;11.540;2023-03-25T13:19:01;13.00;54.20
1786;DHT22;890;48.158;11.540;2023-03-25T13:21:42;13.00;53.80
1786;DHT22;890;48.158;11.540;2023-03-25T13:24:15;12.60;53.40
1786;DHT22;890;48.158;11.540;2023-03-25T13:26:43;12.50;53.60
1786;DHT22;890;48.158;11.540;2023-03-25T13:31:43;12.50;53.70
1786;DHT22;890;48.158;11.540;2023-03-25T13:34:18;12.50;54.00
1786;DHT22;890;48.158;11.540;2023-03-25T13:37:20;12.60;54.30
1786;DHT22;890;48.158;11.540;2023-03-25T13:45:17;12.50;54.90
1786;DHT22;890;48.158;11.540;2023-03-25T13:50:32;12.50;55.00
1786;DHT22;890;48.158;11.540;2023-03-25T13:53:24;12.40;54.90
1786;DHT22;890;48.158;11.540;2023-03-25T13:56:08;12.40;55.30
1786;DHT22;890;48.158;11.540;2023-03-25T14:04:39;12.40;55.00
1786;DHT22;890;48.158;11.540;2023-03-25T14:07:52;12.40;54.80
1786;DHT22;890;48.158;11.540;2023-03-25T14:10:37;12.40;54.50
1786;DHT22;890;48.158;11.540;2023-03-25T14:13:16;12.40;54.60
1786;DHT22;890;48.158;11.540;2023-03-25T14:16:07;12.20;54.50
1786;DHT22;890;48.158;11.540;2023-03-25T14:18:41;12.20;54.50
1786;DHT22;890;48.158;11.540;2023-03-25T14:24:21;12.10;54.40
1786;DHT22;890;48.158;11.540;2023-03-25T14:26:52;12.00;54.40
1786;DHT22;890;48.158;11.540;2023-03-25T14:29:38;11.90;54.50
1786;DHT22;890;48.158;11.540;2023-03-25T14:32:32;12.00;54.50
1786;DHT22;890;48.158;11.540;2023-03-25T14:43:26;12.20;54.70
1786;DHT22;890;48.158;11.540;2023-03-25T14:53:58;12.20;54.90
1786;DHT22;890;48.158;11.540;2023-03-25T14:56:33;12.20;55.20
1786;DHT22;890;48.158;11.540;2023-03-25T14:59:08;12.30;55.20
1786;DHT22;890;48.158;11.540;2023-03-25T15:01:36;12.40;55.00
1786;DHT22;890;48.158;11.540;2023-03-25T15:04:09;12.50;54.80
1786;DHT22;890;48.158;11.540;2023-03-25T15:06:36;12.70;54.70
1786;DHT22;890;48.158;11.540;2023-03-25T15:09:05;12.80;54.60
1786;DHT22;890;48.158;11.540;2023-03-25T15:11:35;12.90;54.70
1786;DHT22;890;48.158;11.540;2023-03-25T15:14:23;12.80;54.50
1786;DHT22;890;48.158;11.540;2023-03-25T15:16:57;12.80;54.60
1786;DHT22;890;48.158;11.540;2023-03-25T15:19:23;12.80;54.40
1786;DHT22;890;48.158;11.540;2023-03-25T15:24:31;13.00;54.80
1786;DHT22;890;48.158;11.540;2023-03-25T15:27:13;13.30;54.70
1786;DHT22;890;48.158;11.540;2023-03-25T15:30:01;13.30;54.10
1786;DHT22;890;48.158;11.540;2023-03-25T15:41:20;12.80;54.50
1786;DHT22;890;48.158;11.540;2023-03-25T15:43:53;12.70;54.50
1786;DHT22;890;48.158;11.540;2023-03-25T15:46:32;12.60;54.50
1786;DHT22;890;48.158;11.540;2023-03-25T15:54:44;12.30;55.10
1786;DHT22;890;48.158;11.540;2023-03-25T15:57:21;12.20;55.30
1786;DHT22;890;48.158;11.540;2023-03-25T15:59:56;12.10;55.50
1786;DHT22;890;48.158;11.540;2023-03-25T16:02:45;12.10;55.60
1786;DHT22;890;48.158;11.540;2023-03-25T16:05:15;12.20;55.80
1786;DHT22;890;48.158;11.540;2023-03-25T16:07:41;12.30;55.50
1786;DHT22;890;48.158;11.540;2023-03-25T16:10:16;12.30;55.60
1786;DHT22;890;48.158;11.540;2023-03-25T16:12:45;12.40;55.70
1786;DHT22;890;48.158;11.540;2023-03-25T16:15:17;12.40;55.80
1786;DHT22;890;48.158;11.540;2023-03-25T16:17:43;12.30;55.60
1786;DHT22;890;48.158;11.540;2023-03-25T16:20:17;12.20;55.50
1786;DHT22;890;48.158;11.540;2023-03-25T16:22:49;12.20;55.60
1786;DHT22;890;48.158;11.540;2023-03-25T16:25:23;12.20;55.60
1786;DHT22;890;48.158;11.540;2023-03-25T16:27:54;12.20;55.70
1786;DHT22;890;48.158;11.540;2023-03-25T16:30:36;12.10;55.80
1786;DHT22;890;48.158;11.540;2023-03-25T16:35:35;12.00;56.00
1786;DHT22;890;48.158;11.540;2023-03-25T16:38:02;11.90;56.20
1786;DHT22;890;48.158;11.540;2023-03-25T16:40:31;11.90;56.30
1786;DHT22;890;48.158;11.540;2023-03-25T16:43:05;11.80;56.40
1786;DHT22;890;48.158;11.540;2023-03-25T16:45:31;11.80;56.70
1786;DHT22;890;48.158;11.540;2023-03-25T16:48:02;11.80;56.60
1786;DHT22;890;48.158;11.540;2023-03-25T16:50:29;11.80;56.80
1786;DHT22;890;48.158;11.540;2023-03-25T16:52:55;11.90;56.80
1786;DHT22;890;48.158;11.540;2023-03-25T16:55:46;11.90;56.70
1786;DHT22;890;48.158;11.540;2023-03-25T16:58:19;11.80;56.80
1786;DHT22;890;48.158;11.540;2023-03-25T17:00:50;11.80;56.90
1786;DHT22;890;48.158;11.540;2023-03-25T17:03:18;11.90;56.90
1786;DHT22;890;48.158;11.540;2023-03-25T17:06:10;12.00;56.90
1786;DHT22;890;48.158;11.540;2023-03-25T17:08:37;12.10;56.80
1786;DHT22;890;48.158;11.540;2023-03-25T17:11:06;12.10;56.80
1786;DHT22;890;48.158;11.540;2023-03-25T17:13:45;12.00;56.80
1786;DHT22;890;48.158;11.540;2023-03-25T17:16:15;11.90;56.80
1786;DHT22;890;48.158;11.540;2023-03-25T17:18:41;11.70;56.70
1786;DHT22;890;48.158;11.540;2023-03-25T17:21:11;11.60;56.90
1786;DHT22;890;48.158;11.540;2023-03-25T17:23:44;11.50;57.10
1786;DHT22;890;48.158;11.540;2023-03-25T17:26:16;11.50;57.30
1786;DHT22;890;48.158;11.540;2023-03-25T17:34:08;11.00;57.70
1786;DHT22;890;48.158;11.540;2023-03-25T17:36:37;10.90;58.00
1786;DHT22;890;48.158;11.540;2023-03-25T17:39:18;10.80;58.10
1786;DHT22;890;48.158;11.540;2023-03-25T17:41:45;10.80;58.60
1786;DHT22;890;48.158;11.540;2023-03-25T17:44:16;10.80;58.40
1786;DHT22;890;48.158;11.540;2023-03-25T17:46:42;10.60;58.60
1786;DHT22;890;48.158;11.540;2023-03-25T17:49:16;10.60;58.70
1786;DHT22;890;48.158;11.540;2023-03-25T17:51:43;10.50;58.90
1786;DHT22;890;48.158;11.540;2023-03-25T17:54:09;10.50;59.00
1786;DHT22;890;48.158;11.540;2023-03-25T17:56:36;10.40;59.10
1786;DHT22;890;48.158;11.540;2023-03-25T17:59:09;10.40;59.10
1786;DHT22;890;48.158;11.540;2023-03-25T18:01:37;10.40;59.40
1786;DHT22;890;48.158;11.540;2023-03-25T18:04:02;10.40;59.60
1786;DHT22;890;48.158;11.540;2023-03-25T18:06:29;10.30;59.70
1786;DHT22;890;48.158;11.540;2023-03-25T18:08:55;10.20;59.80
1786;DHT22;890;48.158;11.540;2023-03-25T18:11:20;10.20;60.10
1786;DHT22;890;48.158;11.540;2023-03-25T18:13:46;10.10;60.10
1786;DHT22;890;48.158;11.540;2023-03-25T18:16:17;10.10;60.30
1786;DHT22;890;48.158;11.540;2023-03-25T18:18:43;10.10;60.50
1786;DHT22;890;48.158;11.540;2023-03-25T18:21:12;10.10;60.60
1786;DHT22;890;48.158;11.540;2023-03-25T18:23:38;10.10;60.80
1786;DHT22;890;48.158;11.540;2023-03-25T18:26:05;10.10;60.90
1786;DHT22;890;48.158;11.540;2023-03-25T18:28:35;10.10;61.00
1786;DHT22;890;48.158;11.540;2023-03-25T18:31:00;10.10;61.10
1786;DHT22;890;48.158;11.540;2023-03-25T18:33:26;10.10;61.20
1786;DHT22;890;48.158;11.540;2023-03-25T18:35:53;10.10;61.30
1786;DHT22;890;48.158;11.540;2023-03-25T18:38:25;10.10;61.30
1786;DHT22;890;48.158;11.540;2023-03-25T18:40:52;10.10;61.50
1786;DHT22;890;48.158;11.540;2023-03-25T18:43:18;10.10;61.70
1786;DHT22;890;48.158;11.540;2023-03-25T18:45:45;10.10;61.90
1786;DHT22;890;48.158;11.540;2023-03-25T18:48:15;10.10;62.20
1786;DHT22;890;48.158;11.540;2023-03-25T18:50:44;10.00;62.60
1786;DHT22;890;48.158;11.540;2023-03-25T18:53:13;10.00;62.80
1786;DHT22;890;48.158;11.540;2023-03-25T18:55:40;10.00;62.90